createdAt,value
2019-06-15T00:02:13.051Z,79.03
2019-06-15T00:04:41.450Z,79.73
2019-06-15T00:07:09.843Z,79.88
2019-06-15T00:09:38.232Z,79.66
2019-06-15T00:12:06.634Z,79.99
2019-06-15T00:14:35.263Z,80.09
2019-06-15T00:17:03.679Z,80.24
2019-06-15T00:19:32.064Z,80.03
2019-06-15T00:22:00.468Z,80.29
2019-06-15T00:24:35.281Z,80.17
2019-06-15T00:26:59.231Z,79.97
2019-06-15T00:29:27.631Z,80.12
2019-06-15T00:31:56.295Z,80.01
2019-06-15T00:34:24.721Z,80.14
2019-06-15T00:36:53.368Z,80.11
2019-06-15T00:39:22.132Z,80.17
2019-06-15T00:41:50.533Z,80.44
2019-06-15T00:44:19.242Z,80.48
2019-06-15T00:46:47.657Z,80.60
2019-06-15T00:49:18.826Z,81.02
2019-06-15T00:51:47.477Z,81.33
2019-06-15T00:54:15.891Z,81.19
2019-06-15T00:56:44.478Z,81.28
2019-06-15T00:59:13.102Z,81.00
2019-06-15T01:01:41.501Z,80.78
2019-06-15T01:04:09.891Z,80.67
2019-06-15T01:06:38.299Z,80.30
2019-06-15T01:09:06.959Z,80.26
2019-06-15T01:11:35.653Z,80.14
2019-06-15T01:14:04.550Z,80.03
2019-06-15T01:16:32.943Z,80.43
2019-06-15T01:19:01.622Z,80.56
2019-06-15T01:21:30.305Z,80.59
2019-06-15T01:23:58.698Z,80.53
2019-06-15T01:26:27.098Z,80.82
2019-06-15T01:28:55.495Z,80.76
2019-06-15T01:31:23.903Z,80.97
2019-06-15T01:33:52.299Z,80.71
2019-06-15T01:36:20.930Z,80.57
2019-06-15T01:38:49.612Z,80.51
2019-06-15T01:41:18.021Z,80.49
2019-06-15T01:43:46.424Z,80.21
2019-06-15T01:46:14.814Z,80.34
2019-06-15T01:48:43.547Z,80.39
2019-06-15T01:51:11.959Z,80.48
2019-06-15T01:53:40.372Z,80.54
2019-06-15T01:56:08.774Z,80.55
2019-06-15T01:58:37.494Z,80.47
2019-06-15T02:01:06.024Z,80.41
2019-06-15T02:03:34.382Z,80.41
2019-06-15T02:06:02.973Z,80.34
2019-06-15T02:08:31.635Z,80.31
2019-06-15T02:11:00.322Z,79.99
2019-06-15T02:13:28.806Z,80.09
2019-06-15T02:15:57.186Z,80.37
2019-06-15T02:18:25.593Z,80.43
2019-06-15T02:20:54.270Z,80.43
2019-06-15T02:23:22.749Z,79.95
2019-06-15T02:25:51.129Z,80.27
2019-06-15T02:28:19.826Z,80.46
2019-06-15T02:30:48.516Z,80.59
2019-06-15T02:33:17.208Z,80.47
2019-06-15T02:35:45.895Z,80.69
2019-06-15T02:38:14.294Z,80.83
2019-06-15T02:40:42.965Z,80.91
2019-06-15T02:43:11.366Z,81.07
2019-06-15T02:45:40.048Z,81.15
2019-06-15T02:48:08.704Z,81.22
2019-06-15T02:50:37.354Z,81.17
2019-06-15T02:53:05.822Z,81.16
2019-06-15T02:55:34.239Z,81.32
2019-06-15T02:58:02.645Z,81.90
2019-06-15T03:00:34.097Z,82.29
2019-06-15T03:03:02.820Z,82.75
2019-06-15T03:05:31.239Z,83.48
2019-06-15T03:07:59.718Z,83.99
2019-06-15T03:10:28.599Z,84.02
2019-06-15T03:12:58.146Z,83.84
2019-06-15T03:15:26.562Z,83.62
2019-06-15T03:17:54.964Z,83.48
2019-06-15T03:20:23.350Z,83.52
2019-06-15T03:22:52.043Z,83.62
2019-06-15T03:25:20.447Z,83.66
2019-06-15T03:27:49.022Z,83.83
2019-06-15T03:30:17.852Z,84.00
2019-06-15T03:32:46.496Z,84.37
2019-06-15T03:35:16.641Z,84.08
2019-06-15T03:37:45.408Z,83.78
2019-06-15T03:40:14.748Z,83.96
2019-06-15T03:42:43.511Z,83.81
2019-06-15T03:45:12.572Z,83.51
2019-06-15T03:47:41.207Z,83.33
2019-06-15T03:50:10.951Z,83.14
2019-06-15T03:52:39.440Z,82.73
2019-06-15T03:55:09.530Z,82.28
2019-06-15T03:57:38.206Z,82.27
2019-06-15T04:00:26.493Z,81.94
2019-06-15T04:02:54.944Z,81.94
2019-06-15T04:05:23.616Z,81.88
2019-06-15T04:07:52.304Z,81.78
2019-06-15T04:10:20.719Z,81.66
2019-06-15T04:12:49.116Z,81.68
2019-06-15T04:15:17.499Z,81.85
2019-06-15T04:17:45.908Z,81.91
2019-06-15T04:20:14.545Z,82.09
2019-06-15T04:22:42.936Z,81.92
2019-06-15T04:25:11.439Z,82.01
2019-06-15T04:27:39.842Z,80.91
2019-06-15T04:30:09.169Z,80.90
2019-06-15T04:32:37.576Z,79.94
2019-06-15T04:35:06.803Z,79.86
2019-06-15T04:37:35.198Z,79.89
2019-06-15T04:40:05.226Z,79.84
2019-06-15T04:42:33.644Z,80.10
2019-06-15T04:45:02.305Z,80.15
2019-06-15T04:47:30.752Z,79.95
2019-06-15T04:49:59.228Z,80.13
2019-06-15T04:52:27.585Z,79.96
2019-06-15T04:54:56.298Z,80.22
2019-06-15T04:57:24.695Z,80.05
2019-06-15T04:59:53.354Z,79.94
2019-06-15T05:02:21.764Z,79.86
2019-06-15T05:04:50.164Z,79.99
2019-06-15T05:07:18.812Z,79.75
2019-06-15T05:09:47.197Z,79.77
2019-06-15T05:12:15.616Z,79.58
2019-06-15T05:14:44.020Z,79.78
2019-06-15T05:17:12.424Z,79.94
2019-06-15T05:19:40.847Z,79.41
2019-06-15T05:22:09.225Z,79.32
2019-06-15T05:24:37.637Z,79.49
2019-06-15T05:27:06.777Z,79.54
2019-06-15T05:29:35.253Z,79.61
2019-06-15T05:32:03.671Z,79.64
2019-06-15T05:34:32.076Z,79.65
2019-06-15T05:37:00.477Z,79.52
2019-06-15T05:39:28.879Z,79.25
2019-06-15T05:42:00.387Z,79.02
2019-06-15T05:44:28.778Z,78.20
2019-06-15T05:46:58.879Z,78.08
2019-06-15T05:49:27.293Z,78.24
2019-06-15T05:51:55.685Z,78.35
2019-06-15T05:54:24.344Z,78.02
2019-06-15T05:56:52.746Z,78.23
2019-06-15T05:59:21.150Z,78.45
2019-06-15T06:01:49.574Z,78.00
2019-06-15T06:04:17.970Z,78.31
2019-06-15T06:06:46.356Z,78.36
2019-06-15T06:09:15.046Z,79.42
2019-06-15T06:11:43.507Z,80.40
2019-06-15T06:14:11.901Z,81.09
2019-06-15T06:16:40.300Z,81.19
2019-06-15T06:19:08.698Z,81.14
2019-06-15T06:21:37.396Z,80.60
2019-06-15T06:24:06.176Z,80.10
2019-06-15T06:26:34.597Z,79.75
2019-06-15T06:29:02.990Z,79.60
2019-06-15T06:31:31.371Z,79.89
2019-06-15T06:34:00.147Z,79.80
2019-06-15T06:36:28.549Z,78.60
2019-06-15T06:38:56.940Z,78.39
2019-06-15T06:41:25.336Z,78.11
2019-06-15T06:43:53.763Z,76.91
2019-06-15T06:46:22.163Z,77.36
2019-06-15T06:48:50.678Z,77.12
2019-06-15T06:51:19.095Z,76.82
2019-06-15T06:53:49.885Z,76.68
2019-06-15T06:56:18.272Z,76.54
2019-06-15T06:58:46.892Z,75.96
2019-06-15T07:01:15.538Z,75.44
2019-06-15T07:03:44.401Z,75.59
2019-06-15T07:06:12.802Z,74.67
2019-06-15T07:08:41.454Z,73.06
2019-06-15T07:11:09.907Z,72.99
2019-06-15T07:13:38.317Z,72.83
2019-06-15T07:16:06.703Z,72.78
2019-06-15T07:18:35.451Z,72.47
2019-06-15T07:21:04.026Z,72.20
2019-06-15T07:23:32.825Z,70.75
2019-06-15T07:26:01.234Z,69.54
2019-06-15T07:28:29.631Z,68.82
2019-06-15T07:30:58.039Z,68.29
2019-06-15T07:33:26.430Z,68.08
2019-06-15T07:35:54.829Z,67.75
2019-06-15T07:38:23.234Z,67.56
2019-06-15T07:40:51.632Z,66.68
2019-06-15T07:43:20.034Z,66.77
2019-06-15T07:45:48.783Z,66.44
2019-06-15T07:48:17.476Z,66.40
2019-06-15T07:50:45.960Z,66.34
2019-06-15T07:53:14.382Z,65.01
2019-06-15T07:55:42.771Z,65.29
2019-06-15T07:58:24.211Z,65.16
2019-06-15T08:00:43.292Z,66.03
2019-06-15T08:03:11.864Z,66.35
2019-06-15T08:05:40.325Z,66.35
2019-06-15T08:08:08.731Z,66.54
2019-06-15T08:10:37.130Z,67.30
2019-06-15T08:13:05.536Z,67.70
2019-06-15T08:15:33.943Z,67.32
2019-06-15T08:18:02.685Z,67.13
2019-06-15T08:20:33.452Z,67.18
2019-06-15T08:23:02.201Z,67.64
2019-06-15T08:25:31.527Z,67.65
2019-06-15T08:27:59.839Z,68.92
2019-06-15T08:30:34.044Z,68.16
2019-06-15T08:33:02.452Z,67.02
2019-06-15T08:35:30.889Z,67.02
2019-06-15T08:37:59.260Z,66.46
2019-06-15T08:40:27.698Z,66.05
2019-06-15T08:42:56.077Z,64.67
2019-06-15T08:45:24.467Z,64.84
2019-06-15T08:47:52.861Z,63.80
2019-06-15T08:50:21.585Z,63.43
2019-06-15T08:52:50.009Z,63.46
2019-06-15T08:55:18.552Z,64.09
2019-06-15T08:57:46.959Z,62.79
2019-06-15T09:00:15.889Z,61.96
2019-06-15T09:02:44.349Z,62.49
2019-06-15T09:05:12.972Z,61.25
2019-06-15T09:07:41.374Z,61.63
2019-06-15T09:10:10.511Z,59.87
2019-06-15T09:12:39.013Z,59.92
2019-06-15T09:15:09.820Z,59.04
2019-06-15T09:17:39.777Z,59.27
2019-06-15T09:20:09.726Z,59.83
2019-06-15T09:22:38.096Z,60.78
2019-06-15T09:25:06.932Z,62.40
2019-06-15T09:27:35.397Z,62.43
2019-06-15T09:30:05.588Z,62.51
2019-06-15T09:32:33.967Z,63.15
2019-06-15T09:35:02.354Z,63.45
2019-06-15T09:37:30.832Z,63.08
2019-06-15T09:39:59.247Z,63.45
2019-06-15T09:42:27.610Z,63.95
2019-06-15T09:44:56.000Z,62.92
2019-06-15T09:47:24.381Z,63.37
2019-06-15T09:49:52.787Z,62.47
2019-06-15T09:52:21.169Z,62.72
2019-06-15T09:54:49.591Z,61.90
2019-06-15T09:57:24.463Z,61.43
2019-06-15T09:59:52.871Z,60.32
2019-06-15T10:02:21.558Z,59.03
2019-06-15T10:04:49.956Z,58.54
2019-06-15T10:07:18.432Z,58.00
2019-06-15T10:09:48.477Z,57.08
2019-06-15T10:12:16.879Z,55.22
2019-06-15T10:14:45.567Z,55.37
2019-06-15T10:17:14.231Z,55.55
2019-06-15T10:19:42.604Z,55.17
2019-06-15T10:22:11.297Z,54.30
2019-06-15T10:24:39.683Z,52.03
2019-06-15T10:27:08.317Z,52.41
2019-06-15T10:29:42.236Z,50.94
2019-06-15T10:32:09.853Z,50.60
2019-06-15T10:34:38.317Z,50.03
2019-06-15T10:37:06.719Z,49.04
2019-06-15T10:39:35.382Z,49.44
2019-06-15T10:42:03.791Z,48.48
2019-06-15T10:44:33.706Z,49.65
2019-06-15T10:47:02.100Z,47.91
2019-06-15T10:49:30.487Z,48.56
2019-06-15T10:51:59.148Z,47.64
2019-06-15T10:54:30.678Z,45.38
2019-06-15T10:57:22.892Z,45.79
2019-06-15T10:59:57.333Z,43.22
2019-06-15T11:02:31.597Z,44.68
2019-06-15T11:05:10.517Z,44.18
2019-06-15T11:07:44.612Z,44.28
2019-06-15T11:10:15.499Z,45.12
2019-06-15T11:12:46.601Z,44.15
2019-06-15T11:15:14.148Z,43.62
2019-06-15T11:17:42.554Z,43.84
2019-06-15T11:20:11.323Z,44.20
2019-06-15T11:22:39.765Z,43.85
2019-06-15T11:25:08.541Z,44.07
2019-06-15T11:27:36.990Z,43.72
2019-06-15T11:30:13.680Z,43.40
2019-06-15T11:32:38.489Z,43.72
2019-06-15T11:35:07.647Z,43.32
2019-06-15T11:37:36.184Z,44.04
2019-06-15T11:40:06.836Z,43.50
2019-06-15T11:42:35.203Z,44.43
2019-06-15T11:45:05.251Z,44.70
2019-06-15T11:47:33.671Z,42.30
2019-06-15T11:50:02.440Z,43.70
2019-06-15T11:52:30.815Z,43.67
2019-06-15T11:54:59.210Z,43.40
2019-06-15T11:57:31.034Z,44.82
2019-06-15T11:59:59.442Z,43.51
2019-06-15T12:02:27.975Z,44.06
2019-06-15T12:04:58.698Z,44.73
2019-06-15T12:07:26.500Z,45.36
2019-06-15T12:09:54.932Z,45.95
2019-06-15T12:12:23.432Z,47.22
2019-06-15T12:14:51.816Z,48.15
2019-06-15T12:17:20.206Z,48.70
2019-06-15T12:19:48.597Z,48.68
2019-06-15T12:22:17.252Z,48.79
2019-06-15T12:24:45.684Z,48.89
2019-06-15T12:27:14.154Z,49.14
2019-06-15T12:29:42.554Z,48.55
2019-06-15T12:32:10.938Z,47.84
2019-06-15T12:34:39.405Z,47.41
2019-06-15T12:37:07.917Z,46.71
2019-06-15T12:39:41.588Z,47.62
2019-06-15T12:42:10.540Z,45.10
2019-06-15T12:44:41.760Z,45.19
2019-06-15T12:47:10.249Z,44.16
2019-06-15T12:49:38.779Z,44.27
2019-06-15T12:52:10.233Z,44.87
2019-06-15T12:54:43.025Z,45.03
2019-06-15T12:57:11.469Z,42.22
2019-06-15T12:59:40.028Z,42.20
2019-06-15T13:02:08.471Z,43.67
2019-06-15T13:04:37.098Z,44.75
2019-06-15T13:07:05.522Z,45.04
2019-06-15T13:09:34.006Z,45.75
2019-06-15T13:12:02.392Z,46.75
2019-06-15T13:14:30.886Z,46.47
2019-06-15T13:16:59.505Z,48.36
2019-06-15T13:19:27.877Z,48.04
2019-06-15T13:21:56.648Z,48.45
2019-06-15T13:24:25.156Z,47.73
2019-06-15T13:26:53.537Z,46.72
2019-06-15T13:29:22.270Z,46.84
2019-06-15T13:31:50.726Z,48.30
2019-06-15T13:34:19.114Z,46.98
2019-06-15T13:36:52.781Z,46.43
2019-06-15T13:39:21.188Z,47.04
2019-06-15T13:41:49.575Z,44.81
2019-06-15T13:44:17.962Z,47.62
2019-06-15T13:46:46.388Z,46.29
2019-06-15T13:49:14.765Z,43.18
2019-06-15T13:51:43.164Z,44.82
2019-06-15T13:54:11.550Z,44.00
2019-06-15T13:56:40.006Z,45.35
2019-06-15T13:59:08.814Z,44.93
2019-06-15T14:01:37.231Z,45.07
2019-06-15T14:04:05.608Z,45.48
2019-06-15T14:06:33.993Z,44.89
2019-06-15T14:09:05.251Z,45.29
2019-06-15T14:11:32.568Z,44.93
2019-06-15T14:14:00.957Z,44.92
2019-06-15T14:16:29.734Z,44.31
2019-06-15T14:18:58.168Z,44.58
2019-06-15T14:21:26.571Z,45.89
2019-06-15T14:23:56.103Z,44.84
2019-06-15T14:26:28.529Z,45.94
2019-06-15T14:28:56.914Z,45.17
2019-06-15T14:31:25.314Z,45.32
2019-06-15T14:33:53.715Z,43.23
2019-06-15T14:36:22.171Z,43.16
2019-06-15T14:38:50.534Z,42.30
2019-06-15T14:41:19.073Z,41.07
2019-06-15T14:43:50.577Z,40.93
2019-06-15T14:46:18.972Z,40.28
2019-06-15T14:48:47.431Z,40.55
2019-06-15T14:51:16.160Z,40.84
2019-06-15T14:53:49.917Z,39.51
2019-06-15T14:56:16.048Z,40.13
2019-06-15T14:58:45.876Z,40.14
2019-06-15T15:01:16.636Z,38.67
2019-06-15T15:03:47.132Z,39.69
2019-06-15T15:06:17.001Z,39.24
2019-06-15T15:08:46.888Z,39.80
2019-06-15T15:11:17.118Z,39.15
2019-06-15T15:13:47.114Z,38.98
2019-06-15T15:16:17.615Z,38.27
2019-06-15T15:18:46.472Z,38.35
2019-06-15T15:21:16.550Z,37.64
2019-06-15T15:23:46.440Z,37.62
2019-06-15T15:26:17.179Z,36.71
2019-06-15T15:28:47.227Z,37.46
2019-06-15T15:31:17.209Z,37.14
2019-06-15T15:33:47.729Z,37.22
2019-06-15T15:36:16.948Z,38.43
2019-06-15T15:38:46.936Z,38.16
2019-06-15T15:41:17.962Z,37.59
2019-06-15T15:43:46.521Z,37.68
2019-06-15T15:46:16.568Z,37.39
2019-06-15T15:48:46.970Z,36.72
2019-06-15T15:51:17.211Z,37.25
2019-06-15T15:53:46.754Z,37.72
2019-06-15T15:56:17.044Z,37.50
2019-06-15T15:58:47.116Z,37.15
2019-06-15T16:01:17.133Z,37.51
2019-06-15T16:03:47.430Z,37.96
2019-06-15T16:06:16.050Z,38.28
2019-06-15T16:08:47.069Z,38.30
2019-06-15T16:11:16.271Z,38.23
2019-06-15T16:13:46.163Z,37.74
2019-06-15T16:16:16.477Z,39.70
2019-06-15T16:18:47.006Z,38.57
2019-06-15T16:21:16.863Z,38.65
2019-06-15T16:23:46.700Z,38.65
2019-06-15T16:26:16.975Z,37.89
2019-06-15T16:28:46.071Z,38.28
2019-06-15T16:31:17.755Z,38.01
2019-06-15T16:33:46.505Z,38.25
2019-06-15T16:36:14.860Z,38.26
2019-06-15T16:38:43.271Z,37.61
2019-06-15T16:41:11.665Z,37.62
2019-06-15T16:43:40.514Z,37.64
2019-06-15T16:46:08.915Z,38.25
2019-06-15T16:48:38.429Z,38.93
2019-06-15T16:51:20.620Z,38.33
2019-06-15T16:53:47.293Z,38.48
2019-06-15T16:56:16.613Z,37.72
2019-06-15T16:58:46.866Z,37.75
2019-06-15T17:01:16.821Z,37.79
2019-06-15T17:03:47.028Z,38.94
2019-06-15T17:06:16.529Z,39.05
2019-06-15T17:08:46.449Z,39.08
2019-06-15T17:11:17.203Z,39.36
2019-06-15T17:13:47.373Z,39.17
2019-06-15T17:16:22.806Z,38.39
2019-06-15T17:18:51.547Z,38.77
2019-06-15T17:21:19.952Z,38.51
2019-06-15T17:23:48.622Z,39.53
2019-06-15T17:26:17.728Z,39.43
2019-06-15T17:28:47.958Z,39.30
2019-06-15T17:31:17.597Z,39.56
2019-06-15T17:33:49.003Z,39.95
2019-06-15T17:36:17.804Z,40.32
2019-06-15T17:38:46.449Z,39.80
2019-06-15T17:41:17.149Z,39.55
2019-06-15T17:43:47.416Z,39.81
2019-06-15T17:46:16.506Z,39.97
2019-06-15T17:48:46.760Z,41.15
2019-06-15T17:51:16.046Z,40.83
2019-06-15T17:53:47.135Z,40.89
2019-06-15T17:56:16.228Z,39.95
2019-06-15T17:58:46.407Z,39.89
2019-06-15T18:01:17.179Z,40.00
2019-06-15T18:03:51.611Z,38.76
2019-06-15T18:06:17.534Z,39.78
2019-06-15T18:08:46.519Z,39.69
2019-06-15T18:11:16.604Z,39.46
2019-06-15T18:13:47.307Z,39.53
2019-06-15T18:16:15.376Z,39.73
2019-06-15T18:18:43.804Z,40.57
2019-06-15T18:21:12.553Z,39.15
2019-06-15T18:23:41.028Z,39.93
2019-06-15T18:26:09.448Z,39.84
2019-06-15T18:28:37.871Z,39.69
2019-06-15T18:31:06.782Z,40.31
2019-06-15T18:33:36.624Z,39.66
2019-06-15T18:36:06.296Z,40.40
2019-06-15T18:38:37.228Z,39.88
2019-06-15T18:41:07.323Z,40.63
2019-06-15T18:43:36.675Z,40.37
2019-06-15T18:46:07.189Z,40.86
2019-06-15T18:48:36.095Z,41.62
2019-06-15T18:51:07.398Z,41.15
2019-06-15T18:53:38.926Z,41.27
2019-06-15T18:56:07.040Z,41.71
2019-06-15T18:58:37.179Z,41.70
2019-06-15T19:01:06.911Z,42.19
2019-06-15T19:03:37.519Z,41.75
2019-06-15T19:06:06.545Z,41.83
2019-06-15T19:08:35.644Z,42.47
2019-06-15T19:11:06.802Z,42.88
2019-06-15T19:13:35.972Z,43.76
2019-06-15T19:16:06.904Z,44.16
2019-06-15T19:18:37.052Z,45.36
2019-06-15T19:21:07.020Z,46.70
2019-06-15T19:23:36.060Z,45.50
2019-06-15T19:26:06.326Z,45.21
2019-06-15T19:28:37.038Z,45.79
2019-06-15T19:31:06.528Z,47.00
2019-06-15T19:33:37.644Z,47.65
2019-06-15T19:36:06.316Z,46.70
2019-06-15T19:38:36.232Z,47.45
2019-06-15T19:41:06.950Z,47.95
2019-06-15T19:43:36.282Z,48.61
2019-06-15T19:46:06.804Z,48.77
2019-06-15T19:48:36.886Z,49.10
2019-06-15T19:51:05.533Z,49.09
2019-06-15T19:53:36.206Z,49.85
2019-06-15T19:56:06.634Z,50.25
2019-06-15T19:58:34.254Z,47.94
2019-06-15T20:01:02.645Z,48.70
2019-06-15T20:03:31.044Z,49.43
2019-06-15T20:06:06.404Z,49.82
2019-06-15T20:08:36.192Z,49.49
2019-06-15T20:11:07.409Z,49.44
2019-06-15T20:13:38.162Z,49.96
2019-06-15T20:16:07.840Z,50.10
2019-06-15T20:18:37.512Z,50.04
2019-06-15T20:21:07.346Z,50.35
2019-06-15T20:23:37.091Z,48.31
2019-06-15T20:26:06.885Z,48.30
2019-06-15T20:28:35.441Z,48.65
2019-06-15T20:31:07.057Z,50.06
2019-06-15T20:33:36.914Z,50.39
2019-06-15T20:36:06.651Z,51.02
2019-06-15T20:38:36.354Z,51.26
2019-06-15T20:41:07.326Z,51.56
2019-06-15T20:43:36.624Z,52.15
2019-06-15T20:46:07.022Z,52.21
2019-06-15T20:48:36.258Z,52.84
2019-06-15T20:51:09.828Z,53.02
2019-06-15T20:53:36.741Z,53.21
2019-06-15T20:56:06.606Z,53.97
2019-06-15T20:58:37.278Z,54.01
2019-06-15T21:01:07.112Z,53.69
2019-06-15T21:03:36.682Z,54.16
2019-06-15T21:06:06.878Z,54.85
2019-06-15T21:08:36.379Z,55.23
2019-06-15T21:11:07.103Z,55.41
2019-06-15T21:13:37.486Z,55.71
2019-06-15T21:16:06.687Z,56.23
2019-06-15T21:18:37.092Z,56.18
2019-06-15T21:21:06.833Z,56.26
2019-06-15T21:23:37.249Z,56.69
2019-06-15T21:26:06.861Z,57.20
2019-06-15T21:28:36.881Z,57.20
2019-06-15T21:31:06.230Z,57.41
2019-06-15T21:33:36.045Z,57.93
2019-06-15T21:36:06.299Z,58.35
2019-06-15T21:38:36.081Z,59.05
2019-06-15T21:41:08.047Z,59.86
2019-06-15T21:43:36.747Z,60.01
2019-06-15T21:46:06.385Z,60.15
2019-06-15T21:48:36.536Z,60.22
2019-06-15T21:51:07.905Z,60.19
2019-06-15T21:53:36.189Z,60.54
2019-06-15T21:56:07.168Z,60.35
2019-06-15T21:58:36.704Z,60.15
2019-06-15T22:01:23.403Z,60.31
2019-06-15T22:03:51.883Z,60.55
2019-06-15T22:06:20.288Z,61.29
2019-06-15T22:08:48.708Z,61.48
2019-06-15T22:11:17.097Z,61.55
2019-06-15T22:13:46.350Z,61.77
2019-06-15T22:16:16.815Z,61.98
2019-06-15T22:18:47.407Z,61.92
2019-06-15T22:21:16.147Z,62.76
2019-06-15T22:23:47.110Z,62.56
2019-06-15T22:26:17.120Z,62.89
2019-06-15T22:28:47.066Z,63.03
2019-06-15T22:31:17.117Z,63.20
2019-06-15T22:33:47.302Z,63.44
2019-06-15T22:36:24.671Z,63.15
2019-06-15T22:38:46.318Z,63.04
2019-06-15T22:41:16.708Z,63.14
2019-06-15T22:43:46.232Z,63.23
2019-06-15T22:46:16.614Z,63.03
2019-06-15T22:48:47.019Z,63.04
2019-06-15T22:51:16.825Z,63.05
2019-06-15T22:53:47.172Z,63.28
2019-06-15T22:56:17.403Z,63.40
2019-06-15T22:58:47.490Z,63.13
2019-06-15T23:01:16.844Z,63.21
2019-06-15T23:03:46.550Z,62.89
2019-06-15T23:06:16.266Z,61.02
2019-06-15T23:08:47.008Z,60.91
2019-06-15T23:11:17.186Z,60.87
2019-06-15T23:13:46.282Z,60.17
2019-06-15T23:16:14.959Z,59.80
2019-06-15T23:18:43.356Z,59.89
2019-06-15T23:21:11.774Z,60.22
2019-06-15T23:23:40.433Z,60.99
2019-06-15T23:26:08.863Z,61.68
2019-06-15T23:28:37.629Z,61.91
2019-06-15T23:31:07.525Z,62.17
2019-06-15T23:33:36.185Z,61.77
2019-06-15T23:36:09.097Z,61.25
2019-06-15T23:38:37.847Z,61.20
2019-06-15T23:41:06.975Z,61.38
2019-06-15T23:43:36.291Z,60.96
2019-06-15T23:46:06.657Z,61.16
2019-06-15T23:48:36.373Z,61.32
2019-06-15T23:51:06.217Z,61.62
2019-06-15T23:53:36.746Z,62.12
2019-06-15T23:56:06.285Z,62.70
2019-06-15T23:58:37.057Z,62.64
